Station: Norseman Airport  

  Atmospheric Gas Attenuation - ITU Rec 676-11   ----------------- dB/100km -----------------
Date Time Temp RH % AH g/m3 Dew Point Wind Direction Speed kph Gust kph Barometer mB Rainfall Since 9am 24GHz 47GHz 76GHz 122GHz 134GHz 241GHz
08/05 09:20 14.2 67 8.18 8.2 11 15 1035.1 0 18.7 25.9 38.9 101.7 94.1 323.3
08/05 09:10 13.7 67 7.93 7.7 15 20 1035.3 0 18.1 25.7 38.1 99.7 91.5 313.9
08/05 09:00 13.4 69 8.02 7.8 17 20 1035.2 0 18.4 25.9 38.6 101.0 93.0 319.2
08/05 08:50 12.8 70 7.84 7.5 15 17 1035.3 0.4 18.0 25.8 38.2 99.9 91.3 313.3
08/05 08:40 12.3 71 7.71 7.2 22 28 1035.2 0.4 17.7 25.7 37.9 99.1 90.2 309.2
08/05 08:30 11.8 73 7.68 7.1 19 28 1035.2 0.4 17.7 25.8 38.0 99.4 90.4 309.8
08/05 08:20 11.6 74 7.69 7.1 15 15 1035.2 0.4 17.7 25.9 38.2 99.8 90.7 311.0
08/05 08:10 11 76 7.61 6.9 17 19 1035.2 0.4 17.6 25.9 38.1 99.6 90.3 309.7
08/05 08:00 10.8 78 7.71 7.1 17 24 1035.1 0.4 17.8 26.1 38.6 101.0 91.9 315.1
08/05 07:50 10.4 78 7.52 6.7 19 20 1035 0.4 17.4 25.9 38.0 99.4 89.8 307.7
08/05 07:40 10.2 80 7.61 6.9 15 15 1034.9 0.4 17.6 26.1 38.5 100.6 91.3 312.7
08/05 07:30 9.8 82 7.61 6.9 11 17 1034.9 0.4 17.6 26.3 38.7 101.1 91.7 314.3
08/05 07:20 9.3 84 7.55 6.7 13 15 1034.8 0.4 17.5 26.3 38.7 101.1 91.5 313.4
08/05 07:10 8.8 86 7.49 6.6 9 11 1034.6 0.4 17.4 26.3 38.7 101.1 91.2 312.5
08/05 07:00 8.4 88 7.47 6.5 11 15 1034.5 0.4 17.4 26.4 38.8 101.4 91.4 313.1
08/05 06:50 8.2 90 7.54 6.7 13 15 1034.5 0.4 17.6 26.6 39.2 102.4 92.6 317.3
08/05 06:40 7.9 90 7.4 6.4 11 11 1034.5 0.4 17.3 26.5 38.7 101.2 91.1 311.7
08/05 06:30 8 91 7.53 6.6 13 17 1034.4 0.4 17.6 26.6 39.2 102.5 92.7 317.6
08/05 06:20 7.9 91 7.48 6.5 11 11 1034.4 0.4 17.4 26.6 39.1 102.1 92.2 315.6
08/05 06:10 8.1 90 7.49 6.6 9 11 1034.5 0.4 17.5 26.6 39.0 102.0 92.1 315.3
08/05 06:00 8.4 89 7.55 6.7 9 13 1034.4 0.4 17.6 26.6 39.1 102.2 92.5 317.0
08/05 05:50 8.5 88 7.52 6.6 9 11 1034.3 0.4 17.5 26.5 38.9 101.8 92.0 315.1
08/05 05:40 8.6 89 7.65 6.9 13 17 1034.2 0.4 17.8 26.7 39.4 103.1 93.7 321.0
08/05 05:30 8.4 90 7.64 6.9 9 15 1034.2 0.4 17.8 26.7 39.5 103.2 93.8 321.3
08/05 05:20 8.4 90 7.64 6.9 9 11 1034.2 0.4 17.8 26.7 39.5 103.2 93.8 321.3
08/05 05:10 8.5 90 7.69 7 7 9 1034.2 0.4 17.9 26.8 39.7 103.7 94.3 323.3
08/05 05:00 8.6 90 7.74 7.1 7 13 1034 0.4 18.0 26.8 39.8 104.1 94.9 325.3
08/05 04:50 8.8 89 7.75 7.1 9 13 1033.9 0.4 18.0 26.8 39.7 103.9 94.8 324.9
08/05 04:40 9 88 7.76 7.1 9 11 1033.8 0.4 18.0 26.7 39.7 103.8 94.7 324.5
08/05 04:30 9.2 88 7.86 7.3 13 17 1033.7 0.4 18.2 26.8 40.0 104.6 95.8 328.5
08/05 04:20 9.3 87 7.82 7.3 9 13 1033.7 0.4 18.1 26.7 39.8 104.0 95.1 326.2
08/05 04:10 9.4 87 7.87 7.3 13 15 1033.7 0.4 18.2 26.8 39.9 104.4 95.7 328.2
08/05 04:00 9.5 87 7.92 7.4 13 17 1033.6 0.4 18.3 26.8 40.1 104.9 96.3 330.2
08/05 03:50 9.5 86 7.83 7.3 11 11 1033.6 0.4 18.1 26.7 39.7 103.9 95.0 325.8
08/05 03:40 9.6 86 7.88 7.4 11 15 1033.5 0.4 18.2 26.7 39.9 104.3 95.6 327.8
08/05 03:30 9.7 86 7.93 7.5 13 19 1033.4 0.4 18.3 26.8 40.0 104.7 96.1 329.8
08/05 03:20 9.7 85 7.84 7.3 13 15 1033.3 0.4 18.1 26.6 39.6 103.7 94.9 325.4
08/05 03:10 9.9 85 7.94 7.5 13 15 1033.3 0.4 18.3 26.7 40.0 104.5 96.0 329.4
08/05 03:00 9.9 85 7.94 7.5 15 19 1033.3 0.4 18.3 26.7 40.0 104.5 96.0 329.4
08/05 02:50 10.1 84 7.95 7.5 15 17 1033.2 0.4 18.4 26.7 39.9 104.4 95.9 329.0
08/05 02:40 10.2 84 8 7.6 13 15 1033.2 0.4 18.5 26.7 40.1 104.8 96.5 331.0
08/05 02:30 10.4 83 8 7.6 17 20 1033.2 0.4 18.4 26.7 40.0 104.5 96.2 330.1
08/05 02:20 10.5 83 8.05 7.7 17 20 1033.2 0.4 18.6 26.7 40.1 104.9 96.8 332.1
08/05 02:10 10.7 82 8.06 7.8 19 20 1033 0.4 18.6 26.7 40.0 104.8 96.6 331.7
08/05 02:00 10.9 81 8.06 7.8 17 22 1033.1 0.4 18.6 26.6 39.9 104.5 96.4 330.9
08/05 01:50 10.8 81 8.01 7.7 17 22 1032.9 0.4 18.5 26.6 39.8 104.1 95.8 328.8
08/05 01:40 10.9 81 8.06 7.8 17 20 1033 0.4 18.6 26.6 39.9 104.5 96.4 330.8
08/05 01:30 11 80 8.01 7.7 17 20 1033 0.4 18.4 26.5 39.7 103.8 95.6 328.0
08/05 01:20 11.1 79 7.96 7.6 15 19 1032.8 0.4 18.3 26.4 39.4 103.1 94.8 325.2
08/05 01:10 11.2 79 8.01 7.7 15 17 1032.9 0.4 18.4 26.4 39.6 103.5 95.3 327.2
08/05 01:00 11.2 79 8.01 7.7 15 20 1033 0.4 18.4 26.4 39.6 103.5 95.3 327.2
08/05 00:50 11.4 79 8.11 7.9 17 19 1032.9 0.4 18.6 26.5 39.9 104.4 96.4 331.1
08/05 00:40 11.4 79 8.11 7.9 15 17 1032.9 0.4 18.6 26.5 39.9 104.4 96.4 331.1
08/05 00:30 11.6 79 8.21 8.1 15 20 1033 0.4 18.8 26.7 40.2 105.2 97.6 335.0
08/05 00:20 11.6 79 8.21 8.1 13 15 1033 0.4 18.8 26.7 40.2 105.2 97.6 335.0
08/05 00:10 11.7 79 8.26 8.2 13 17 1033 0.4 18.9 26.7 40.4 105.6 98.1 337.0
08/05 00:00 11.8 78 8.21 8.1 15 20 1033.1 0.4 18.8 26.6 40.1 105.0 97.3 334.2
07/05 23:50 11.9 78 8.26 8.2 15 17 1033 0.4 18.9 26.6 40.3 105.4 97.9 336.1
07/05 23:40 12.1 78 8.37 8.4 15 17 1033 0.4 19.2 26.8 40.6 106.3 99.1 340.5
07/05 23:30 12.3 77 8.36 8.4 15 20 1033.1 0.4 19.1 26.7 40.5 105.9 98.7 339.2
07/05 23:20 12.6 76 8.41 8.5 13 17 1033.2 0.4 19.2 26.7 40.5 106.1 99.0 340.3
07/05 23:10 12.7 76 8.46 8.6 15 17 1033.2 0.4 19.3 26.7 40.7 106.5 99.6 342.2
07/05 23:00 12.7 77 8.57 8.8 15 20 1033.2 0.4 19.6 26.9 41.1 107.7 101.1 347.4
07/05 22:50 12.7 77 8.57 8.8 17 19 1033.2 0.4 19.6 26.9 41.1 107.7 101.1 347.4
07/05 22:40 12.8 77 8.63 8.9 17 20 1033 0.4 19.7 27.0 41.3 108.2 101.7 349.8
07/05 22:30 12.8 76 8.51 8.7 15 20 1033.1 0.4 19.4 26.8 40.8 106.9 100.1 344.1
07/05 22:20 13.1 75 8.56 8.8 15 19 1033 0.4 19.5 26.8 40.9 107.0 100.4 345.1
07/05 22:10 13.3 75 8.67 9 17 19 1033 0.4 19.7 26.9 41.2 108.0 101.6 349.4
07/05 22:00 13.6 73 8.59 8.9 15 22 1033.1 0.4 19.6 26.7 40.8 106.7 100.2 344.4
07/05 21:50 13.9 72 8.63 8.9 17 22 1033.2 0.4 19.6 26.7 40.8 106.7 100.3 345.0
07/05 21:40 14.2 71 8.67 9 15 19 1033.2 0.4 19.7 26.6 40.8 106.8 100.5 345.5
07/05 21:30 14.5 70 8.71 9.1 19 32 1033.1 0.4 19.8 26.6 40.8 106.8 100.6 346.0
07/05 21:20 14.6 70 8.76 9.2 17 20 1033 0.4 19.9 26.7 40.9 107.2 101.1 347.9
07/05 21:10 14.6 70 8.76 9.2 17 20 1033 0.4 19.9 26.7 40.9 107.2 101.1 347.9
07/05 21:00 14.6 69 8.63 9 19 26 1033 0.4 19.6 26.5 40.4 105.8 99.4 341.9
07/05 20:50 14.7 68 8.56 8.9 13 15 1033 0.4 19.4 26.3 40.1 104.9 98.3 338.2
07/05 20:40 14.9 67 8.54 8.8 22 26 1032.9 0.4 19.4 26.2 39.9 104.4 97.8 336.4
07/05 20:30 14.9 68 8.67 9.1 17 26 1033 0.4 19.7 26.4 40.4 105.8 99.5 342.4
07/05 20:20 14.9 68 8.67 9.1 19 20 1032.8 0.4 19.7 26.4 40.4 105.8 99.5 342.4
07/05 20:10 15 68 8.72 9.1 11 17 1032.9 0.4 19.8 26.5 40.6 106.2 100.1 344.3
07/05 20:00 15.1 68 8.77 9.2 15 24 1033 0.4 19.9 26.5 40.7 106.6 100.6 346.2
07/05 19:50 15.2 68 8.83 9.3 11 13 1032.9 0.4 20.0 26.6 40.9 107.1 101.3 348.5
07/05 19:40 15.2 68 8.83 9.3 15 20 1032.9 0.4 20.0 26.6 40.9 107.1 101.3 348.5
07/05 19:30 15.3 68 8.88 9.4 15 26 1032.9 0.4 20.1 26.6 41.0 107.5 101.8 350.4
07/05 19:20 15.4 68 8.93 9.5 11 17 1032.7 0.4 20.2 26.7 41.2 107.9 102.3 352.2
07/05 19:10 15.4 68 8.93 9.5 13 15 1032.6 0.4 20.2 26.7 41.2 107.9 102.3 352.1
07/05 19:00 15.5 68 8.99 9.6 15 20 1032.6 0.4 20.3 26.8 41.4 108.4 103.0 354.5
07/05 18:50 15.6 69 9.18 9.9 11 13 1032.4 0.4 20.7 27.0 42.1 110.3 105.3 362.8
07/05 18:40 15.8 68 9.15 9.9 13 15 1032.4 0.4 20.6 26.9 41.8 109.7 104.7 360.5
07/05 18:30 15.9 68 9.21 10 11 17 1032.5 0.4 20.8 27.0 42.0 110.2 105.3 362.8
07/05 18:20 16 67 9.13 9.9 15 17 1032.3 0.4 20.6 26.8 41.7 109.2 104.1 358.6
07/05 18:10 16 67 9.13 9.9 13 15 1032.2 0.4 20.6 26.8 41.7 109.2 104.1 358.6
07/05 18:00 16.1 67 9.18 10 9 15 1032.2 0.4 20.7 26.9 41.8 109.6 104.6 360.5
07/05 17:50 16.2 66 9.1 9.8 9 11 1032.1 0.4 20.5 26.7 41.4 108.6 103.4 356.3
07/05 17:40 16.2 66 9.1 9.8 11 17 1032.1 0.4 20.5 26.7 41.4 108.6 103.4 356.3
07/05 17:30 16.2 66 9.1 9.8 11 17 1032 0.4 20.5 26.7 41.4 108.5 103.4 356.2
07/05 17:20 16.4 66 9.21 10 13 15 1032 0.4 20.7 26.8 41.8 109.4 104.6 360.4
07/05 17:10 16.5 65 9.13 9.9 13 17 1031.9 0.4 20.6 26.7 41.4 108.4 103.4 356.2
07/05 17:00 16.6 65 9.18 10 13 20 1031.8 0.4 20.7 26.7 41.5 108.8 103.9 358.1
07/05 16:50 16.7 65 9.24 10.1 19 24 1031.7 0.4 20.8 26.8 41.7 109.3 104.6 360.3

Last Refresh: 08-May-2026 11:04:29

Bureau of Meteorology